Chester, Georgia
Current Conditions -  °F | °C
As of 11:35 AM on Monday 24 Nov 2014 (Local Time) from KEZM Reporting Station
Overcast Overcast  
Wind Chill: 71°   Ceiling: 1000
Heat Index: 71°   Visibility: 10mi
Dew Point: 71°   Wind: 7mph
Humidity: 100%   Direction: 220°SW
Pressure: 29.9"   Gusts: NA
Location:  32.39°N, 83.15°W
Report Text: KEZM 241635Z AUTO 22006KT 10SM BKN010 OVC013 22/22 A2990 RMK AO2 T02190219
Loading
Personal Weather Stations






























Interactive Weather Map New forecast layout! Learn more

10-Day Weather Forecast

Advertisements
Track Severe Weather on mobile